Time,TemperatureF,DewpointF,PressureIn,WindDirection,WindDirectionDegrees,WindSpeedMPH,WindSpeedGustMPH,Humidity,HourlyPrecipIn,Conditions,Clouds,dailyrainin,SoftwareType,DateUTC
2013-06-28 00:00:00,70.0,69.1,29.78,West,274,0.0,1.0,97,0.00,RA,,0.00,WeatherDisplay:10.37,2013-06-28 04:00:00,
2013-06-28 00:01:00,70.0,69.1,29.78,West,262,3.5,3.5,97,0.00,RA,,0.00,WeatherDisplay:10.37,2013-06-28 04:01:00,
2013-06-28 00:06:00,70.0,69.1,29.78,West,267,1.2,1.2,97,0.00,RA,,0.00,WeatherDisplay:10.37,2013-06-28 04:06:00,
2013-06-28 00:11:00,70.0,69.1,29.77,WSW,256,1.2,0.0,97,0.00,,,0.00,WeatherDisplay:10.37,2013-06-28 04:11:00,
2013-06-28 00:16:00,70.0,69.4,29.77,West,264,0.0,0.0,98,0.00,,,0.00,WeatherDisplay:10.37,2013-06-28 04:16:00,
2013-06-28 00:21:00,70.1,69.5,29.77,West,276,2.3,2.3,98,0.00,,,0.00,WeatherDisplay:10.37,2013-06-28 04:21:00,
2013-06-28 00:26:00,70.2,69.6,29.77,WNW,288,2.3,2.3,98,0.00,,,0.00,WeatherDisplay:10.37,2013-06-28 04:26:00,
2013-06-28 00:31:00,70.3,69.7,29.77,WSW,255,3.5,3.5,98,0.00,,,0.00,WeatherDisplay:10.37,2013-06-28 04:31:00,
2013-06-28 00:36:00,70.4,69.8,29.78,WSW,257,1.2,1.2,98,0.00,,,0.00,WeatherDisplay:10.37,2013-06-28 04:36:00,
2013-06-28 00:41:00,70.5,69.9,29.78,West,267,2.0,2.0,98,0.00,,,0.00,WeatherDisplay:10.37,2013-06-28 04:41:00,
2013-06-28 00:46:00,70.6,70.0,29.77,West,260,2.3,2.3,98,0.00,,,0.00,WeatherDisplay:10.37,2013-06-28 04:46:00,
2013-06-28 00:51:00,70.6,70.0,29.77,West,260,1.2,1.2,98,0.00,,,0.00,WeatherDisplay:10.37,2013-06-28 04:51:00,
2013-06-28 00:56:00,70.5,69.9,29.77,WSW,255,0.0,0.0,98,0.00,,,0.00,WeatherDisplay:10.37,2013-06-28 04:56:00,
2013-06-28 01:01:00,70.4,69.8,29.77,WSW,258,0.0,0.0,98,0.00,,,0.00,WeatherDisplay:10.37,2013-06-28 05:01:00,
2013-06-28 01:06:00,70.3,69.4,29.76,West,271,1.2,0.0,97,0.00,,,0.00,WeatherDisplay:10.37,2013-06-28 05:06:00,
2013-06-28 01:11:00,70.1,69.5,29.76,West,264,2.3,2.3,98,0.00,,,0.00,WeatherDisplay:10.37,2013-06-28 05:11:00,
2013-06-28 01:16:00,70.0,69.4,29.76,West,267,0.0,0.0,98,0.00,,,0.00,WeatherDisplay:10.37,2013-06-28 05:16:00,
2013-06-28 01:21:00,69.9,69.3,29.76,West,267,2.3,2.3,98,0.00,,,0.00,WeatherDisplay:10.37,2013-06-28 05:21:00,
2013-06-28 01:26:00,69.8,69.2,29.76,West,262,2.3,2.3,98,0.00,,,0.00,WeatherDisplay:10.37,2013-06-28 05:26:00,
2013-06-28 01:31:00,69.9,69.3,29.76,WSW,257,3.0,3.0,98,0.00,,,0.00,WeatherDisplay:10.37,2013-06-28 05:31:00,
2013-06-28 01:36:00,70.1,69.5,29.76,WSW,258,4.6,4.6,98,0.00,,,0.00,WeatherDisplay:10.37,2013-06-28 05:36:00,
2013-06-28 01:41:00,70.3,69.7,29.75,WSW,248,5.8,5.8,98,0.00,,,0.00,WeatherDisplay:10.37,2013-06-28 05:41:00,
2013-06-28 01:46:00,70.6,70.0,29.75,West,280,1.2,1.2,98,0.00,,,0.00,WeatherDisplay:10.37,2013-06-28 05:46:00,
2013-06-28 01:51:00,70.7,69.8,29.75,West,264,3.5,3.5,97,0.00,,,0.00,WeatherDisplay:10.37,2013-06-28 05:51:00,
2013-06-28 01:56:00,70.8,69.9,29.75,WNW,292,3.5,3.5,97,0.00,,,0.00,WeatherDisplay:10.37,2013-06-28 05:56:00,
2013-06-28 02:01:00,70.8,69.9,29.75,WSW,249,2.3,2.3,97,0.00,,,0.00,WeatherDisplay:10.37,2013-06-28 06:01:00,
2013-06-28 02:06:00,70.8,69.9,29.75,WSW,253,2.3,2.3,97,0.00,,,0.00,WeatherDisplay:10.37,2013-06-28 06:06:00,
2013-06-28 02:11:00,70.8,69.9,29.75,NW,310,2.3,2.3,97,0.00,,,0.00,WeatherDisplay:10.37,2013-06-28 06:11:00,
2013-06-28 02:16:00,70.8,69.9,29.75,West,260,5.0,5.0,97,0.00,,,0.00,WeatherDisplay:10.37,2013-06-28 06:16:00,
2013-06-28 02:21:00,70.8,69.9,29.75,West,260,4.6,4.6,97,0.00,,,0.00,WeatherDisplay:10.37,2013-06-28 06:21:00,
2013-06-28 02:26:00,70.8,69.6,29.75,WNW,295,5.8,5.8,96,0.00,,,0.00,WeatherDisplay:10.37,2013-06-28 06:26:00,
2013-06-28 02:31:00,70.8,69.6,29.75,WSW,256,3.5,3.5,96,0.00,,,0.00,WeatherDisplay:10.37,2013-06-28 06:31:00,
2013-06-28 02:36:00,70.8,69.6,29.75,West,279,3.5,3.5,96,0.00,,,0.00,WeatherDisplay:10.37,2013-06-28 06:36:00,
2013-06-28 02:41:00,70.9,69.7,29.75,West,263,2.3,0.0,96,0.00,,,0.00,WeatherDisplay:10.37,2013-06-28 06:41:00,
2013-06-28 02:47:00,70.8,69.6,29.75,WSW,242,2.3,2.3,96,0.00,,,0.00,WeatherDisplay:10.37,2013-06-28 06:47:00,
2013-06-28 02:52:00,70.8,69.6,29.75,NW,309,4.6,4.6,96,0.00,,,0.00,WeatherDisplay:10.37,2013-06-28 06:52:00,
2013-06-28 02:57:00,70.8,69.6,29.75,West,265,4.6,4.6,96,0.00,,,0.00,WeatherDisplay:10.37,2013-06-28 06:57:00,
2013-06-28 03:02:00,70.8,69.6,29.75,West,267,10.4,10.4,96,0.00,,,0.00,WeatherDisplay:10.37,2013-06-28 07:02:00,
2013-06-28 03:07:00,70.8,69.6,29.75,WSW,248,3.5,3.5,96,0.00,,,0.00,WeatherDisplay:10.37,2013-06-28 07:07:00,
2013-06-28 03:12:00,70.8,69.6,29.75,WSW,254,3.5,3.5,96,0.00,,,0.00,WeatherDisplay:10.37,2013-06-28 07:12:00,
2013-06-28 03:17:00,70.8,69.6,29.74,West,260,3.5,3.5,96,0.00,,,0.00,WeatherDisplay:10.37,2013-06-28 07:17:00,
2013-06-28 03:22:00,70.9,69.4,29.74,WSW,252,2.0,2.0,95,0.00,,,0.00,WeatherDisplay:10.37,2013-06-28 07:22:00,
2013-06-28 03:27:00,70.9,69.4,29.74,West,269,3.5,3.5,95,0.00,,,0.00,WeatherDisplay:10.37,2013-06-28 07:27:00,
2013-06-28 03:32:00,71.0,69.5,29.75,WSW,250,4.6,4.6,95,0.00,,,0.00,WeatherDisplay:10.37,2013-06-28 07:32:00,
2013-06-28 03:37:00,71.0,69.5,29.74,West,263,2.3,2.3,95,0.00,,,0.00,WeatherDisplay:10.37,2013-06-28 07:37:00,
2013-06-28 03:42:00,71.0,69.5,29.75,West,261,4.6,4.6,95,0.00,,,0.00,WeatherDisplay:10.37,2013-06-28 07:42:00,
2013-06-28 03:47:00,71.0,69.5,29.75,West,260,3.5,3.5,95,0.00,,,0.00,WeatherDisplay:10.37,2013-06-28 07:47:00,
2013-06-28 03:52:00,71.0,69.5,29.75,West,280,3.5,3.5,95,0.00,,,0.00,WeatherDisplay:10.37,2013-06-28 07:52:00,
2013-06-28 03:57:00,70.9,69.4,29.75,NW,310,3.5,3.5,95,0.00,,,0.00,WeatherDisplay:10.37,2013-06-28 07:57:00,
2013-06-28 04:02:00,70.8,69.3,29.75,WSW,253,3.5,3.5,95,0.00,,,0.00,WeatherDisplay:10.37,2013-06-28 08:02:00,
2013-06-28 04:07:00,70.8,69.3,29.75,WSW,252,3.5,3.5,95,0.00,,,0.00,WeatherDisplay:10.37,2013-06-28 08:07:00,
2013-06-28 04:12:00,70.9,69.4,29.75,WSW,252,5.0,5.0,95,0.00,,,0.00,WeatherDisplay:10.37,2013-06-28 08:12:00,
2013-06-28 04:17:00,70.9,69.4,29.75,WSW,247,3.5,3.5,95,0.00,,,0.00,WeatherDisplay:10.37,2013-06-28 08:17:00,
2013-06-28 04:22:00,70.9,69.4,29.75,SW,224,4.6,4.6,95,0.00,,,0.00,WeatherDisplay:10.37,2013-06-28 08:22:00,
2013-06-28 04:27:00,70.8,69.3,29.75,WSW,258,3.5,3.5,95,0.00,,,0.00,WeatherDisplay:10.37,2013-06-28 08:27:00,
2013-06-28 04:32:00,70.7,69.2,29.75,West,263,2.3,2.3,95,0.00,,,0.00,WeatherDisplay:10.37,2013-06-28 08:32:00,
2013-06-28 04:37:00,70.7,69.2,29.75,SW,226,4.6,4.6,95,0.00,,,0.00,WeatherDisplay:10.37,2013-06-28 08:37:00,
2013-06-28 04:42:00,70.5,69.0,29.75,WSW,238,4.0,4.0,95,0.00,,,0.00,WeatherDisplay:10.37,2013-06-28 08:42:00,
2013-06-28 04:47:00,70.5,69.0,29.75,WSW,238,7.0,7.0,95,0.00,,,0.00,WeatherDisplay:10.37,2013-06-28 08:47:00,
2013-06-28 04:52:00,70.4,68.9,29.75,West,264,2.3,2.3,95,0.00,,,0.00,WeatherDisplay:10.37,2013-06-28 08:52:00,
2013-06-28 04:57:00,70.3,68.8,29.75,West,260,2.3,2.3,95,0.00,,,0.00,WeatherDisplay:10.37,2013-06-28 08:57:00,
2013-06-28 05:02:00,70.2,68.7,29.75,WSW,247,3.5,3.5,95,0.00,,,0.00,WeatherDisplay:10.37,2013-06-28 09:02:00,
2013-06-28 05:07:00,70.2,68.7,29.75,WSW,248,3.5,3.5,95,0.00,,,0.00,WeatherDisplay:10.37,2013-06-28 09:07:00,
2013-06-28 05:12:00,70.1,68.6,29.75,WSW,247,3.5,3.5,95,0.00,,,0.00,WeatherDisplay:10.37,2013-06-28 09:12:00,
2013-06-28 05:17:00,70.1,68.9,29.75,WSW,253,3.5,3.5,96,0.00,,,0.00,WeatherDisplay:10.37,2013-06-28 09:17:00,
2013-06-28 05:22:00,70.1,68.9,29.75,SW,231,3.5,3.5,96,0.00,,,0.00,WeatherDisplay:10.37,2013-06-28 09:22:00,
2013-06-28 05:27:00,70.1,68.9,29.75,WSW,255,2.3,0.0,96,0.00,,,0.00,WeatherDisplay:10.37,2013-06-28 09:27:00,
2013-06-28 05:32:00,70.1,68.9,29.75,NW,326,3.5,3.5,96,0.00,,,0.00,WeatherDisplay:10.37,2013-06-28 09:32:00,
2013-06-28 05:37:00,70.1,68.6,29.75,WSW,255,5.8,5.8,95,0.00,,,0.00,WeatherDisplay:10.37,2013-06-28 09:37:00,
2013-06-28 05:42:00,70.1,68.6,29.75,West,270,4.0,4.0,95,0.00,,,0.00,WeatherDisplay:10.37,2013-06-28 09:42:00,
2013-06-28 05:47:00,70.2,68.7,29.75,WSW,258,3.5,3.5,95,0.00,,,0.00,WeatherDisplay:10.37,2013-06-28 09:47:00,
2013-06-28 05:52:00,70.2,68.7,29.75,WSW,254,3.5,3.5,95,0.00,,,0.00,WeatherDisplay:10.37,2013-06-28 09:52:00,
2013-06-28 05:57:00,70.2,68.7,29.75,West,261,5.8,5.8,95,0.00,,,0.00,WeatherDisplay:10.37,2013-06-28 09:57:00,
2013-06-28 06:02:00,70.2,68.7,29.75,West,267,3.5,3.5,95,0.00,,,0.00,WeatherDisplay:10.37,2013-06-28 10:02:00,
2013-06-28 06:07:00,70.2,68.7,29.75,WNW,288,4.0,4.0,95,0.00,,,0.00,WeatherDisplay:10.37,2013-06-28 10:07:00,
2013-06-28 06:12:00,70.1,68.6,29.75,West,261,2.3,2.3,95,0.00,,,0.00,WeatherDisplay:10.37,2013-06-28 10:12:00,
2013-06-28 06:17:00,70.1,68.6,29.75,WSW,250,3.5,3.5,95,0.00,,,0.00,WeatherDisplay:10.37,2013-06-28 10:17:00,
2013-06-28 06:22:00,70.0,68.8,29.75,West,265,3.5,3.5,96,0.00,,,0.00,WeatherDisplay:10.37,2013-06-28 10:22:00,
2013-06-28 06:27:00,70.0,68.8,29.75,WSW,251,4.6,4.6,96,0.00,,,0.00,WeatherDisplay:10.37,2013-06-28 10:27:00,
2013-06-28 06:32:00,69.9,68.7,29.75,WSW,248,3.5,3.5,96,0.00,,,0.00,WeatherDisplay:10.37,2013-06-28 10:32:00,
2013-06-28 06:37:00,69.8,68.6,29.74,WSW,252,5.0,5.0,96,0.00,,,0.00,WeatherDisplay:10.37,2013-06-28 10:37:00,
2013-06-28 06:42:00,69.7,68.5,29.74,WSW,253,3.5,3.5,96,0.00,,,0.00,WeatherDisplay:10.37,2013-06-28 10:42:00,
2013-06-28 06:47:00,69.7,68.5,29.74,WSW,247,4.0,4.0,96,0.00,,,0.00,WeatherDisplay:10.37,2013-06-28 10:47:00,
2013-06-28 06:52:00,69.7,68.5,29.73,SW,222,3.5,3.5,96,0.00,,,0.00,WeatherDisplay:10.37,2013-06-28 10:52:00,
2013-06-28 06:57:00,69.8,68.6,29.74,West,264,3.5,3.5,96,0.00,,,0.00,WeatherDisplay:10.37,2013-06-28 10:57:00,
2013-06-28 07:02:00,69.9,68.7,29.73,WSW,253,3.5,3.5,96,0.00,,,0.00,WeatherDisplay:10.37,2013-06-28 11:02:00,
2013-06-28 07:07:00,70.0,68.8,29.73,WSW,256,4.0,4.0,96,0.00,,,0.00,WeatherDisplay:10.37,2013-06-28 11:07:00,
2013-06-28 07:12:00,70.0,68.8,29.73,WNW,288,3.5,3.5,96,0.00,,,0.00,WeatherDisplay:10.37,2013-06-28 11:12:00,
2013-06-28 07:17:00,70.1,68.9,29.73,West,260,6.9,6.9,96,0.00,,,0.00,WeatherDisplay:10.37,2013-06-28 11:17:00,
2013-06-28 07:22:00,70.1,68.9,29.73,WSW,252,2.3,2.3,96,0.00,,,0.00,WeatherDisplay:10.37,2013-06-28 11:22:00,
2013-06-28 07:27:00,70.2,68.7,29.72,West,265,3.5,3.5,95,0.00,,,0.00,WeatherDisplay:10.37,2013-06-28 11:27:00,
2013-06-28 07:32:00,70.3,68.8,29.72,West,264,3.5,3.5,95,0.00,,,0.00,WeatherDisplay:10.37,2013-06-28 11:32:00,
2013-06-28 07:37:00,70.3,68.8,29.72,SW,229,5.8,5.8,95,0.00,,,0.00,WeatherDisplay:10.37,2013-06-28 11:37:00,
2013-06-28 07:42:00,70.2,68.7,29.72,WSW,242,6.9,6.9,95,0.00,,,0.00,WeatherDisplay:10.37,2013-06-28 11:42:00,
2013-06-28 07:47:00,70.0,68.5,29.72,WSW,248,5.8,5.8,95,0.00,,,0.00,WeatherDisplay:10.37,2013-06-28 11:47:00,
2013-06-28 07:52:00,69.9,68.4,29.72,WSW,238,5.8,5.8,95,0.00,,,0.00,WeatherDisplay:10.37,2013-06-28 11:52:00,
2013-06-28 07:57:00,69.8,68.6,29.71,West,261,5.8,5.8,96,0.00,,,0.00,WeatherDisplay:10.37,2013-06-28 11:57:00,
2013-06-28 08:02:00,69.8,68.6,29.72,West,280,5.0,5.0,96,0.00,,,0.00,WeatherDisplay:10.37,2013-06-28 12:02:00,
2013-06-28 08:07:00,69.8,68.6,29.72,WSW,256,4.6,4.6,96,0.00,,,0.00,WeatherDisplay:10.37,2013-06-28 12:07:00,
2013-06-28 08:08:00,69.8,68.6,29.72,WSW,258,4.6,4.6,96,0.00,,,0.00,WeatherDisplay:10.37,2013-06-28 12:08:00,
2013-06-28 08:13:00,69.8,68.6,29.72,WSW,250,3.5,3.5,96,0.00,,,0.00,WeatherDisplay:10.37,2013-06-28 12:13:00,
2013-06-28 08:18:00,69.9,68.7,29.71,SW,235,6.9,6.9,96,0.00,,,0.00,WeatherDisplay:10.37,2013-06-28 12:18:00,
2013-06-28 08:23:00,69.9,68.7,29.71,WSW,239,6.9,6.9,96,0.00,,,0.00,WeatherDisplay:10.37,2013-06-28 12:23:00,
2013-06-28 08:28:00,70.0,68.8,29.72,West,267,5.8,5.8,96,0.00,,,0.00,WeatherDisplay:10.37,2013-06-28 12:28:00,
2013-06-28 08:33:00,70.1,68.9,29.71,WSW,246,3.5,3.5,96,0.00,,,0.00,WeatherDisplay:10.37,2013-06-28 12:33:00,
2013-06-28 08:38:00,70.2,69.0,29.71,WSW,250,2.3,2.3,96,0.00,,,0.00,WeatherDisplay:10.37,2013-06-28 12:38:00,
2013-06-28 08:43:00,70.4,69.2,29.72,WSW,248,6.9,6.9,96,0.00,,,0.00,WeatherDisplay:10.37,2013-06-28 12:43:00,
2013-06-28 08:48:00,70.3,68.8,29.72,WSW,243,10.0,10.0,95,0.00,,,0.00,WeatherDisplay:10.37,2013-06-28 12:48:00,
2013-06-28 08:53:00,70.4,69.2,29.72,West,281,11.5,11.5,96,0.00,,,0.00,WeatherDisplay:10.37,2013-06-28 12:53:00,
2013-06-28 08:58:00,70.3,69.1,29.72,WSW,246,15.0,15.0,96,0.00,,,0.00,WeatherDisplay:10.37,2013-06-28 12:58:00,
2013-06-28 09:03:00,70.4,69.2,29.73,WSW,238,10.4,10.4,96,0.00,,,0.00,WeatherDisplay:10.37,2013-06-28 13:03:00,
2013-06-28 09:08:00,70.6,69.1,29.73,West,280,6.9,6.9,95,0.00,,,0.00,WeatherDisplay:10.37,2013-06-28 13:08:00,
2013-06-28 09:13:00,70.9,69.4,29.72,West,267,6.9,6.9,95,0.00,,,0.00,WeatherDisplay:10.37,2013-06-28 13:13:00,
2013-06-28 09:18:00,71.1,69.3,29.72,West,274,12.7,12.7,94,0.00,,,0.00,WeatherDisplay:10.37,2013-06-28 13:18:00,
2013-06-28 09:23:00,71.6,69.8,29.72,WSW,240,5.8,5.8,94,0.00,,,0.00,WeatherDisplay:10.37,2013-06-28 13:23:00,
2013-06-28 09:28:00,72.0,69.9,29.72,WSW,258,9.2,9.2,93,0.00,,,0.00,WeatherDisplay:10.37,2013-06-28 13:28:00,
2013-06-28 09:33:00,72.3,69.8,29.72,SW,236,9.2,9.2,92,0.00,,,0.00,WeatherDisplay:10.37,2013-06-28 13:33:00,
2013-06-28 09:38:00,72.8,70.0,29.72,SW,217,13.8,13.8,91,0.00,,,0.00,WeatherDisplay:10.37,2013-06-28 13:38:00,
2013-06-28 09:43:00,73.3,70.2,29.72,SW,236,9.2,9.2,90,0.00,,,0.00,WeatherDisplay:10.37,2013-06-28 13:43:00,
2013-06-28 09:48:00,74.0,70.6,29.72,WSW,247,6.9,6.9,89,0.00,,,0.00,WeatherDisplay:10.37,2013-06-28 13:48:00,
2013-06-28 09:53:00,74.8,71.3,29.71,WNW,286,4.6,4.6,89,0.00,,,0.00,WeatherDisplay:10.37,2013-06-28 13:53:00,
2013-06-28 09:58:00,75.1,70.3,29.71,South,170,10.4,10.4,85,0.00,,,0.00,WeatherDisplay:10.37,2013-06-28 13:58:00,
2013-06-28 10:03:00,75.1,70.6,29.71,WSW,257,6.9,6.9,86,0.00,,,0.00,WeatherDisplay:10.37,2013-06-28 14:03:00,
2013-06-28 10:08:00,75.5,71.0,29.71,WSW,247,7.0,7.0,86,0.00,,,0.00,WeatherDisplay:10.37,2013-06-28 14:08:00,
2013-06-28 10:13:00,75.8,70.6,29.71,West,268,8.1,8.1,84,0.00,,,0.00,WeatherDisplay:10.37,2013-06-28 14:13:00,
2013-06-28 10:18:00,75.8,70.6,29.70,WSW,245,5.8,5.8,84,0.00,,,0.00,WeatherDisplay:10.37,2013-06-28 14:18:00,
2013-06-28 10:23:00,75.9,70.0,29.71,WSW,247,12.0,12.0,82,0.00,,,0.00,WeatherDisplay:10.37,2013-06-28 14:23:00,
2013-06-28 10:28:00,76.2,70.3,29.70,WSW,255,9.2,9.2,82,0.00,,,0.00,WeatherDisplay:10.37,2013-06-28 14:28:00,
2013-06-28 10:33:00,76.3,70.0,29.70,WSW,246,12.7,12.7,81,0.00,,,0.00,WeatherDisplay:10.37,2013-06-28 14:33:00,
2013-06-28 10:38:00,76.0,70.1,29.70,WSW,242,8.1,8.1,82,0.00,,,0.00,WeatherDisplay:10.37,2013-06-28 14:38:00,
2013-06-28 10:43:00,76.2,70.7,29.70,WSW,254,8.1,8.1,83,0.00,,,0.00,WeatherDisplay:10.37,2013-06-28 14:43:00,
2013-06-28 10:48:00,76.2,70.3,29.70,WSW,256,10.0,10.0,82,0.00,,,0.00,WeatherDisplay:10.37,2013-06-28 14:48:00,
2013-06-28 10:53:00,76.2,70.3,29.70,WSW,250,9.2,9.2,82,0.00,,,0.00,WeatherDisplay:10.37,2013-06-28 14:53:00,
2013-06-28 10:58:00,76.6,70.7,29.70,WNW,294,12.7,12.7,82,0.00,,,0.00,WeatherDisplay:10.37,2013-06-28 14:58:00,
2013-06-28 11:03:00,76.9,70.6,29.70,SW,234,10.4,10.4,81,0.00,,,0.00,WeatherDisplay:10.37,2013-06-28 15:03:00,
2013-06-28 11:08:00,77.0,70.4,29.70,WSW,237,10.0,10.0,80,0.00,,,0.00,WeatherDisplay:10.37,2013-06-28 15:08:00,
2013-06-28 11:13:00,77.1,70.8,29.70,WSW,254,9.2,9.2,81,0.00,,,0.00,WeatherDisplay:10.37,2013-06-28 15:13:00,
2013-06-28 11:18:00,77.4,70.7,29.70,WSW,256,5.8,5.8,80,0.00,,,0.00,WeatherDisplay:10.37,2013-06-28 15:18:00,
2013-06-28 11:23:00,77.6,70.6,29.69,WSW,242,11.0,11.0,79,0.00,,,0.00,WeatherDisplay:10.37,2013-06-28 15:23:00,
2013-06-28 11:28:00,77.7,71.0,29.69,NNW,328,12.7,12.7,80,0.00,,,0.00,WeatherDisplay:10.37,2013-06-28 15:28:00,
2013-06-28 11:33:00,77.9,71.6,29.69,West,268,6.0,6.0,81,0.00,,,0.00,WeatherDisplay:10.37,2013-06-28 15:33:00,
2013-06-28 11:38:00,77.9,70.9,29.70,WSW,240,8.1,8.1,79,0.00,,,0.00,WeatherDisplay:10.37,2013-06-28 15:38:00,
2013-06-28 11:43:00,78.1,71.1,29.69,WSW,238,10.0,10.0,79,0.00,,,0.00,WeatherDisplay:10.37,2013-06-28 15:43:00,
2013-06-28 11:48:00,78.5,71.1,29.69,SW,226,11.5,11.5,78,0.00,,,0.00,WeatherDisplay:10.37,2013-06-28 15:48:00,
2013-06-28 11:53:00,78.9,71.5,29.69,West,262,8.1,8.1,78,0.00,,,0.00,WeatherDisplay:10.37,2013-06-28 15:53:00,
2013-06-28 11:58:00,79.2,71.4,29.69,WSW,238,13.8,13.8,77,0.00,,,0.00,WeatherDisplay:10.37,2013-06-28 15:58:00,
2013-06-28 12:03:00,79.3,71.1,29.69,WSW,237,7.0,7.0,76,0.00,,,0.00,WeatherDisplay:10.37,2013-06-28 16:03:00,
2013-06-28 12:08:00,79.4,71.9,29.69,West,271,9.2,9.2,78,0.00,,,0.00,WeatherDisplay:10.37,2013-06-28 16:08:00,
2013-06-28 12:13:00,79.7,70.7,29.69,West,274,9.2,9.2,74,0.00,,,0.00,WeatherDisplay:10.37,2013-06-28 16:13:00,
2013-06-28 12:18:00,80.2,70.8,29.69,West,263,13.8,13.8,73,0.00,,,0.00,WeatherDisplay:10.37,2013-06-28 16:18:00,
2013-06-28 12:23:00,80.4,70.9,29.68,West,276,11.5,11.5,73,0.00,,,0.00,WeatherDisplay:10.37,2013-06-28 16:23:00,
2013-06-28 12:28:00,80.5,70.6,29.68,SSW,210,15.0,15.0,72,0.00,,,0.00,WeatherDisplay:10.37,2013-06-28 16:28:00,
2013-06-28 12:33:00,80.7,70.8,29.68,WSW,252,6.9,6.9,72,0.00,,,0.00,WeatherDisplay:10.37,2013-06-28 16:33:00,
2013-06-28 12:38:00,81.2,71.7,29.68,SW,235,8.1,8.1,73,0.00,,,0.00,WeatherDisplay:10.37,2013-06-28 16:38:00,
2013-06-28 12:43:00,81.6,70.9,29.68,SW,229,11.5,11.5,70,0.00,,,0.00,WeatherDisplay:10.37,2013-06-28 16:43:00,
2013-06-28 12:48:00,81.5,70.3,29.68,WNW,287,12.7,12.7,69,0.00,,,0.00,WeatherDisplay:10.37,2013-06-28 16:48:00,
2013-06-28 12:53:00,81.3,69.3,29.68,WSW,255,11.5,11.5,67,0.00,,,0.00,WeatherDisplay:10.37,2013-06-28 16:53:00,
2013-06-28 12:58:00,81.2,70.9,29.67,WSW,252,11.5,11.5,71,0.00,,,0.00,WeatherDisplay:10.37,2013-06-28 16:58:00,
2013-06-28 13:03:00,81.9,71.6,29.67,NW,323,10.4,10.4,71,0.00,,,0.00,WeatherDisplay:10.37,2013-06-28 17:03:00,
2013-06-28 13:09:00,82.3,70.7,29.67,SSW,212,12.7,12.7,68,0.00,,,0.00,WeatherDisplay:10.37,2013-06-28 17:09:00,
2013-06-28 13:14:00,82.7,70.6,29.66,WSW,243,11.5,11.5,67,0.00,,,0.00,WeatherDisplay:10.37,2013-06-28 17:14:00,
2013-06-28 13:19:00,82.8,71.2,29.66,WSW,239,10.4,10.4,68,0.00,,,0.00,WeatherDisplay:10.37,2013-06-28 17:19:00,
2013-06-28 13:24:00,82.4,70.3,29.66,WSW,251,12.7,12.7,67,0.00,,,0.00,WeatherDisplay:10.37,2013-06-28 17:24:00,
2013-06-28 13:29:00,82.5,70.0,29.66,NW,319,12.7,12.7,66,0.00,,,0.00,WeatherDisplay:10.37,2013-06-28 17:29:00,
2013-06-28 13:34:00,82.6,69.6,29.66,WNW,292,13.8,13.8,65,0.00,,,0.00,WeatherDisplay:10.37,2013-06-28 17:34:00,
2013-06-28 13:39:00,82.7,69.7,29.66,WSW,251,12.7,12.7,65,0.00,,,0.00,WeatherDisplay:10.37,2013-06-28 17:39:00,
2013-06-28 13:44:00,82.2,69.3,29.67,WNW,292,19.6,19.6,65,0.00,,,0.00,WeatherDisplay:10.37,2013-06-28 17:44:00,
2013-06-28 13:49:00,81.0,69.4,29.66,West,264,11.5,11.5,68,0.00,,,0.00,WeatherDisplay:10.37,2013-06-28 17:49:00,
2013-06-28 13:54:00,78.7,68.9,29.67,WSW,255,9.2,9.2,72,0.01,RA,,0.01,WeatherDisplay:10.37,2013-06-28 17:54:00,
2013-06-28 13:59:00,76.4,69.8,29.67,West,263,11.5,11.5,80,0.01,RA,,0.01,WeatherDisplay:10.37,2013-06-28 17:59:00,
2013-06-28 14:04:00,75.5,69.3,29.67,West,262,8.1,8.1,81,0.01,,,0.01,WeatherDisplay:10.37,2013-06-28 18:04:00,
2013-06-28 14:09:00,75.2,67.9,29.67,West,280,6.9,6.9,78,0.01,,,0.01,WeatherDisplay:10.37,2013-06-28 18:09:00,
2013-06-28 14:14:00,75.2,67.9,29.67,WSW,248,8.1,8.1,78,0.01,,,0.01,WeatherDisplay:10.37,2013-06-28 18:14:00,
2013-06-28 14:19:00,74.9,67.9,29.67,WSW,252,7.0,7.0,79,0.01,,,0.01,WeatherDisplay:10.37,2013-06-28 18:19:00,
2013-06-28 14:24:00,74.9,68.7,29.68,SW,224,3.5,3.5,81,0.01,,,0.01,WeatherDisplay:10.37,2013-06-28 18:24:00,
2013-06-28 14:29:00,75.1,68.5,29.67,WNW,295,8.1,8.1,80,0.01,,,0.01,WeatherDisplay:10.37,2013-06-28 18:29:00,
2013-06-28 14:34:00,75.0,68.8,29.67,SW,226,6.0,6.0,81,0.01,,,0.01,WeatherDisplay:10.37,2013-06-28 18:34:00,
2013-06-28 14:39:00,74.8,68.6,29.67,WSW,241,9.0,9.0,81,0.01,,,0.01,WeatherDisplay:10.37,2013-06-28 18:39:00,
2013-06-28 14:44:00,74.6,68.4,29.67,West,259,6.9,6.9,81,0.01,,,0.01,WeatherDisplay:10.37,2013-06-28 18:44:00,
2013-06-28 14:49:00,74.4,68.5,29.67,WSW,256,8.1,8.1,82,0.01,,,0.01,WeatherDisplay:10.37,2013-06-28 18:49:00,
2013-06-28 14:54:00,74.3,68.8,29.67,WSW,248,8.1,8.1,83,0.00,,,0.01,WeatherDisplay:10.37,2013-06-28 18:54:00,
2013-06-28 14:59:00,74.3,68.8,29.67,West,272,9.2,9.2,83,0.00,,,0.01,WeatherDisplay:10.37,2013-06-28 18:59:00,
2013-06-28 15:04:00,74.2,68.7,29.66,WSW,250,5.8,5.8,83,0.00,,,0.01,WeatherDisplay:10.37,2013-06-28 19:04:00,
2013-06-28 15:09:00,74.1,68.6,29.66,SSW,210,5.8,5.8,83,0.00,,,0.01,WeatherDisplay:10.37,2013-06-28 19:09:00,
2013-06-28 15:14:00,73.9,68.8,29.66,SW,222,6.9,6.9,84,0.00,,,0.01,WeatherDisplay:10.37,2013-06-28 19:14:00,
2013-06-28 15:19:00,73.8,68.7,29.65,WSW,252,3.5,3.5,84,0.00,,,0.01,WeatherDisplay:10.37,2013-06-28 19:19:00,
2013-06-28 15:24:00,73.8,68.7,29.65,West,265,7.0,7.0,84,0.00,,,0.01,WeatherDisplay:10.37,2013-06-28 19:24:00,
2013-06-28 15:29:00,73.7,68.9,29.65,WSW,255,8.1,8.1,85,0.00,,,0.01,WeatherDisplay:10.37,2013-06-28 19:29:00,
2013-06-28 15:34:00,73.8,69.0,29.64,WSW,248,3.5,3.5,85,0.00,,,0.01,WeatherDisplay:10.37,2013-06-28 19:34:00,
2013-06-28 15:39:00,73.9,69.1,29.64,West,265,4.6,4.6,85,0.00,,,0.01,WeatherDisplay:10.37,2013-06-28 19:39:00,
2013-06-28 15:44:00,74.1,69.3,29.64,West,263,5.8,5.8,85,0.00,,,0.01,WeatherDisplay:10.37,2013-06-28 19:44:00,
2013-06-28 15:49:00,74.3,69.1,29.63,WSW,254,3.5,3.5,84,0.00,,,0.01,WeatherDisplay:10.37,2013-06-28 19:49:00,
2013-06-28 15:54:00,74.6,69.8,29.63,WSW,245,3.5,3.5,85,0.00,,,0.01,WeatherDisplay:10.37,2013-06-28 19:54:00,
2013-06-28 15:59:00,74.8,68.9,29.63,WSW,250,11.5,11.5,82,0.00,,,0.01,WeatherDisplay:10.37,2013-06-28 19:59:00,
2013-06-28 16:04:00,75.1,69.2,29.63,WSW,251,4.6,4.6,82,0.00,,,0.01,WeatherDisplay:10.37,2013-06-28 20:04:00,
2013-06-28 16:09:00,75.3,69.1,29.61,SW,236,5.8,5.8,81,0.00,,,0.01,WeatherDisplay:10.37,2013-06-28 20:09:00,
2013-06-28 16:14:00,75.5,69.3,29.61,WSW,243,6.0,6.0,81,0.00,,,0.01,WeatherDisplay:10.37,2013-06-28 20:14:00,
2013-06-28 16:19:00,75.5,69.6,29.61,WSW,239,3.5,3.5,82,0.00,,,0.01,WeatherDisplay:10.37,2013-06-28 20:19:00,
2013-06-28 16:24:00,75.7,69.5,29.61,WSW,251,9.2,9.2,81,0.00,,,0.01,WeatherDisplay:10.37,2013-06-28 20:24:00,
2013-06-28 16:29:00,75.8,69.6,29.61,WSW,253,5.8,5.8,81,0.00,,,0.01,WeatherDisplay:10.37,2013-06-28 20:29:00,
2013-06-28 16:34:00,75.8,69.6,29.61,WSW,250,7.0,7.0,81,0.00,,,0.01,WeatherDisplay:10.37,2013-06-28 20:34:00,
2013-06-28 16:39:00,76.0,69.7,29.62,SW,236,8.1,8.1,81,0.00,,,0.01,WeatherDisplay:10.37,2013-06-28 20:39:00,
2013-06-28 16:44:00,76.1,69.1,29.62,SW,235,8.1,8.1,79,0.00,,,0.01,WeatherDisplay:10.37,2013-06-28 20:44:00,
2013-06-28 16:49:00,75.9,68.5,29.62,WSW,250,10.4,10.4,78,0.00,,,0.01,WeatherDisplay:10.37,2013-06-28 20:49:00,
2013-06-28 16:54:00,75.8,68.8,29.61,WSW,252,4.6,4.6,79,0.00,,,0.01,WeatherDisplay:10.37,2013-06-28 20:54:00,
2013-06-28 16:59:00,75.7,68.4,29.61,WSW,253,9.2,9.2,78,0.00,,,0.01,WeatherDisplay:10.37,2013-06-28 20:59:00,
2013-06-28 17:04:00,75.4,67.7,29.61,West,264,5.8,5.8,77,0.00,,,0.01,WeatherDisplay:10.37,2013-06-28 21:04:00,
2013-06-28 17:09:00,75.3,68.0,29.61,West,264,5.8,5.8,78,0.00,,,0.01,WeatherDisplay:10.37,2013-06-28 21:09:00,
2013-06-28 17:14:00,75.3,67.2,29.61,SW,236,6.0,6.0,76,0.00,,,0.01,WeatherDisplay:10.37,2013-06-28 21:14:00,
2013-06-28 17:19:00,75.3,67.2,29.61,WSW,255,5.8,5.8,76,0.00,,,0.01,WeatherDisplay:10.37,2013-06-28 21:19:00,
2013-06-28 17:24:00,75.3,66.8,29.61,WSW,257,5.8,5.8,75,0.00,,,0.01,WeatherDisplay:10.37,2013-06-28 21:24:00,
2013-06-28 17:29:00,75.4,66.9,29.61,WSW,248,6.9,6.9,75,0.00,,,0.01,WeatherDisplay:10.37,2013-06-28 21:29:00,
2013-06-28 17:34:00,75.3,67.2,29.60,West,262,3.5,3.5,76,0.00,,,0.01,WeatherDisplay:10.37,2013-06-28 21:34:00,
2013-06-28 17:39:00,75.2,66.7,29.61,WSW,255,8.1,8.1,75,0.00,,,0.01,WeatherDisplay:10.37,2013-06-28 21:39:00,
2013-06-28 17:44:00,75.0,66.9,29.61,WSW,246,6.9,6.9,76,0.00,,,0.01,WeatherDisplay:10.37,2013-06-28 21:44:00,
2013-06-28 17:49:00,74.8,66.3,29.61,WSW,255,9.2,9.2,75,0.00,,,0.01,WeatherDisplay:10.37,2013-06-28 21:49:00,
2013-06-28 17:54:00,74.6,66.1,29.61,WSW,250,5.8,5.8,75,0.00,,,0.01,WeatherDisplay:10.37,2013-06-28 21:54:00,
2013-06-28 17:59:00,74.5,66.4,29.60,West,269,10.4,10.4,76,0.00,,,0.01,WeatherDisplay:10.37,2013-06-28 21:59:00,
2013-06-28 18:04:00,74.4,66.7,29.60,West,262,4.6,4.6,77,0.00,,,0.01,WeatherDisplay:10.37,2013-06-28 22:04:00,
2013-06-28 18:09:00,74.5,66.4,29.60,WSW,245,5.8,5.8,76,0.00,,,0.01,WeatherDisplay:10.37,2013-06-28 22:09:00,
2013-06-28 18:14:00,74.4,66.3,29.60,WSW,255,4.6,4.6,76,0.00,,,0.01,WeatherDisplay:10.37,2013-06-28 22:14:00,
2013-06-28 18:19:00,74.4,66.3,29.60,WSW,257,8.1,8.1,76,0.00,,,0.01,WeatherDisplay:10.37,2013-06-28 22:19:00,
2013-06-28 18:24:00,74.6,66.5,29.60,WSW,247,8.1,8.1,76,0.00,,,0.01,WeatherDisplay:10.37,2013-06-28 22:24:00,
2013-06-28 18:29:00,74.7,66.6,29.60,WSW,255,8.1,8.1,76,0.00,,,0.01,WeatherDisplay:10.37,2013-06-28 22:29:00,
2013-06-28 18:34:00,74.7,66.2,29.60,West,275,6.9,6.9,75,0.00,,,0.01,WeatherDisplay:10.37,2013-06-28 22:34:00,
2013-06-28 18:39:00,74.7,66.2,29.60,SW,235,7.0,7.0,75,0.00,,,0.01,WeatherDisplay:10.37,2013-06-28 22:39:00,
2013-06-28 18:45:00,74.6,66.1,29.61,West,265,4.6,4.6,75,0.00,,,0.01,WeatherDisplay:10.37,2013-06-28 22:45:00,
2013-06-28 18:50:00,74.4,66.3,29.61,WSW,252,5.8,5.8,76,0.00,,,0.01,WeatherDisplay:10.37,2013-06-28 22:50:00,
2013-06-28 18:55:00,74.2,66.1,29.61,SW,233,3.5,3.5,76,0.00,,,0.01,WeatherDisplay:10.37,2013-06-28 22:55:00,
2013-06-28 19:00:00,74.0,66.3,29.61,WSW,256,0.0,4.0,77,0.00,,,0.01,WeatherDisplay:10.37,2013-06-28 23:00:00,
2013-06-28 19:05:00,73.9,66.2,29.60,West,263,2.3,2.3,77,0.00,,,0.01,WeatherDisplay:10.37,2013-06-28 23:05:00,
2013-06-28 19:10:00,74.0,66.0,29.61,SW,225,3.5,3.5,76,0.00,,,0.01,WeatherDisplay:10.37,2013-06-28 23:10:00,
2013-06-28 19:15:00,73.9,65.9,29.61,WSW,255,1.0,4.0,76,0.00,,,0.01,WeatherDisplay:10.37,2013-06-28 23:15:00,
2013-06-28 19:20:00,73.9,65.9,29.61,West,261,3.5,3.5,76,0.00,,,0.01,WeatherDisplay:10.37,2013-06-28 23:20:00,
2013-06-28 19:25:00,73.9,65.9,29.61,West,266,3.5,3.5,76,0.00,,,0.01,WeatherDisplay:10.37,2013-06-28 23:25:00,
2013-06-28 19:30:00,73.9,66.2,29.61,West,263,0.0,2.0,77,0.00,,,0.01,WeatherDisplay:10.37,2013-06-28 23:30:00,
2013-06-28 19:35:00,73.9,65.9,29.61,WSW,252,2.0,2.0,76,0.00,,,0.01,WeatherDisplay:10.37,2013-06-28 23:35:00,
2013-06-28 19:40:00,74.0,65.6,29.61,West,263,5.8,5.8,75,0.00,,,0.01,WeatherDisplay:10.37,2013-06-28 23:40:00,
2013-06-28 19:45:00,74.0,65.2,29.61,West,261,5.0,8.0,74,0.00,,,0.01,WeatherDisplay:10.37,2013-06-28 23:45:00,
2013-06-28 19:50:00,73.9,65.5,29.62,WSW,257,4.0,4.0,75,0.00,,,0.01,WeatherDisplay:10.37,2013-06-28 23:50:00,
2013-06-28 19:55:00,73.8,65.8,29.62,West,281,3.5,3.5,76,0.00,,,0.01,WeatherDisplay:10.37,2013-06-28 23:55:00,
2013-06-28 20:00:00,74.0,65.6,29.62,WSW,258,1.0,5.0,75,0.00,,,0.01,WeatherDisplay:10.37,2013-06-29 00:00:00,
2013-06-28 20:05:00,74.5,65.3,29.62,WNW,302,5.0,5.0,73,0.00,,,0.01,WeatherDisplay:10.37,2013-06-29 00:05:00,
2013-06-28 20:10:00,74.7,64.7,29.62,West,269,3.0,6.0,71,0.00,,,0.01,WeatherDisplay:10.37,2013-06-29 00:10:00,
2013-06-28 20:15:00,74.7,65.1,29.62,WNW,292,3.5,3.5,72,0.00,,,0.01,WeatherDisplay:10.37,2013-06-29 00:15:00,
2013-06-28 20:20:00,74.3,64.3,29.62,WSW,245,3.5,3.5,71,0.00,,,0.01,WeatherDisplay:10.37,2013-06-29 00:20:00,
2013-06-28 20:25:00,73.9,64.3,29.62,West,266,1.0,6.0,72,0.00,,,0.01,WeatherDisplay:10.37,2013-06-29 00:25:00,
2013-06-28 20:30:00,73.3,64.1,29.62,West,265,1.2,1.5,73,0.00,,,0.01,WeatherDisplay:10.37,2013-06-29 00:30:00,
2013-06-28 20:35:00,72.9,64.1,29.62,West,263,1.0,2.0,74,0.00,,,0.01,WeatherDisplay:10.37,2013-06-29 00:35:00,
2013-06-28 20:40:00,72.4,64.4,29.62,West,261,0.0,1.0,76,0.00,,,0.01,WeatherDisplay:10.37,2013-06-29 00:40:00,
2013-06-28 20:45:00,71.9,64.3,29.62,WSW,252,1.0,4.0,77,0.00,,,0.01,WeatherDisplay:10.37,2013-06-29 00:45:00,
2013-06-28 20:50:00,71.5,64.0,29.62,WSW,252,1.0,5.0,77,0.00,,,0.01,WeatherDisplay:10.37,2013-06-29 00:50:00,
2013-06-28 20:55:00,71.2,64.0,29.62,West,261,1.0,2.0,78,0.00,,,0.01,WeatherDisplay:10.37,2013-06-29 00:55:00,
2013-06-28 21:00:00,70.8,64.0,29.62,West,280,0.0,1.0,79,0.00,,,0.01,WeatherDisplay:10.37,2013-06-29 01:00:00,
2013-06-28 21:05:00,70.3,64.2,29.62,WNW,282,1.2,1.2,81,0.00,,,0.01,WeatherDisplay:10.37,2013-06-29 01:05:00,
2013-06-28 21:10:00,69.7,64.0,29.62,WNW,282,1.2,0.0,82,0.00,,,0.01,WeatherDisplay:10.37,2013-06-29 01:10:00,
2013-06-28 21:15:00,69.4,64.0,29.62,WNW,282,0.0,1.0,83,0.00,,,0.01,WeatherDisplay:10.37,2013-06-29 01:15:00,
2013-06-28 21:20:00,68.9,63.9,29.62,WNW,282,0.0,1.0,84,0.00,,,0.01,WeatherDisplay:10.37,2013-06-29 01:20:00,
2013-06-28 21:25:00,68.5,63.8,29.62,WNW,282,0.0,0.0,85,0.00,,,0.01,WeatherDisplay:10.37,2013-06-29 01:25:00,
2013-06-28 21:30:00,68.1,63.4,29.62,WNW,283,0.0,0.0,85,0.00,,,0.01,WeatherDisplay:10.37,2013-06-29 01:30:00,
2013-06-28 21:35:00,67.8,63.5,29.62,WNW,282,0.0,1.0,86,0.00,,,0.01,WeatherDisplay:10.37,2013-06-29 01:35:00,
2013-06-28 21:40:00,67.5,63.5,29.62,WNW,283,0.0,0.0,87,0.00,,,0.01,WeatherDisplay:10.37,2013-06-29 01:40:00,
2013-06-28 21:45:00,67.3,63.6,29.63,WNW,283,0.0,0.0,88,0.00,,,0.01,WeatherDisplay:10.37,2013-06-29 01:45:00,
2013-06-28 21:50:00,67.0,63.3,29.63,WNW,283,0.0,0.0,88,0.00,,,0.01,WeatherDisplay:10.37,2013-06-29 01:50:00,
2013-06-28 21:55:00,66.6,63.3,29.63,WNW,283,0.0,0.0,89,0.00,,,0.01,WeatherDisplay:10.37,2013-06-29 01:55:00,
2013-06-28 22:00:00,66.2,63.2,29.63,WNW,283,0.0,0.0,90,0.00,,,0.01,WeatherDisplay:10.37,2013-06-29 02:00:00,
2013-06-28 22:05:00,65.9,62.9,29.63,WNW,282,0.0,0.0,90,0.00,,,0.01,WeatherDisplay:10.37,2013-06-29 02:05:00,
2013-06-28 22:10:00,65.6,62.9,29.64,WNW,282,0.0,0.0,91,0.00,,,0.01,WeatherDisplay:10.37,2013-06-29 02:10:00,
2013-06-28 22:15:00,65.4,63.0,29.64,WNW,283,0.0,0.0,92,0.00,,,0.01,WeatherDisplay:10.37,2013-06-29 02:15:00,
2013-06-28 22:20:00,65.2,62.8,29.64,WNW,283,0.0,0.0,92,0.00,,,0.01,WeatherDisplay:10.37,2013-06-29 02:20:00,
2013-06-28 22:25:00,65.0,62.9,29.64,WNW,283,0.0,0.0,93,0.00,,,0.01,WeatherDisplay:10.37,2013-06-29 02:25:00,
2013-06-28 22:30:00,64.7,62.6,29.64,WNW,283,0.0,0.0,93,0.00,,,0.01,WeatherDisplay:10.37,2013-06-29 02:30:00,
2013-06-28 22:35:00,64.6,62.5,29.65,WNW,283,0.0,0.0,93,0.00,,,0.01,WeatherDisplay:10.37,2013-06-29 02:35:00,
2013-06-28 22:40:00,64.5,62.7,29.65,WNW,282,0.0,0.0,94,0.00,,,0.01,WeatherDisplay:10.37,2013-06-29 02:40:00,
2013-06-28 22:45:00,64.4,62.6,29.65,WNW,283,0.0,0.0,94,0.00,,,0.01,WeatherDisplay:10.37,2013-06-29 02:45:00,
2013-06-28 22:50:00,64.2,62.4,29.65,WNW,283,0.0,0.0,94,0.00,,,0.01,WeatherDisplay:10.37,2013-06-29 02:50:00,
2013-06-28 22:55:00,64.2,62.4,29.65,WNW,283,0.0,0.0,94,0.00,,,0.01,WeatherDisplay:10.37,2013-06-29 02:55:00,
2013-06-28 23:00:00,64.1,62.6,29.65,WNW,283,0.0,0.0,95,0.00,,,0.01,WeatherDisplay:10.37,2013-06-29 03:00:00,
2013-06-28 23:05:00,64.1,62.6,29.65,WNW,283,0.0,0.0,95,0.00,,,0.01,WeatherDisplay:10.37,2013-06-29 03:05:00,
2013-06-28 23:10:00,64.1,62.6,29.65,WNW,283,0.0,0.0,95,0.00,,,0.01,WeatherDisplay:10.37,2013-06-29 03:10:00,
2013-06-28 23:15:00,64.3,63.1,29.65,WNW,282,0.0,2.0,96,0.00,,,0.01,WeatherDisplay:10.37,2013-06-29 03:15:00,
2013-06-28 23:20:00,64.9,64.0,29.65,West,269,1.0,1.0,97,0.00,,,0.01,WeatherDisplay:10.37,2013-06-29 03:20:00,
2013-06-28 23:25:00,65.4,64.5,29.65,West,271,1.0,4.0,97,0.00,,,0.01,WeatherDisplay:10.37,2013-06-29 03:25:00,
2013-06-28 23:30:00,65.9,65.0,29.65,WSW,249,2.0,2.0,97,0.00,,,0.01,WeatherDisplay:10.37,2013-06-29 03:30:00,
2013-06-28 23:35:00,66.6,66.0,29.65,WSW,238,3.5,3.5,98,0.00,,,0.01,WeatherDisplay:10.37,2013-06-29 03:35:00,
2013-06-28 23:40:00,67.0,66.1,29.65,WSW,257,1.0,8.0,97,0.00,,,0.01,WeatherDisplay:10.37,2013-06-29 03:40:00,
2013-06-28 23:45:00,67.2,66.0,29.65,West,262,0.0,3.0,96,0.00,,,0.01,WeatherDisplay:10.37,2013-06-29 03:45:00,
2013-06-28 23:50:00,67.3,66.1,29.65,WSW,252,1.2,1.2,96,0.00,,,0.01,WeatherDisplay:10.37,2013-06-29 03:50:00,
2013-06-28 23:55:00,67.3,66.1,29.65,WSW,252,0.0,0.0,96,0.00,,,0.01,WeatherDisplay:10.37,2013-06-29 03:55:00,